Airfield :
LOGIN :

Register | Disclaimer

   EN    FR    IT 

 










Legend :    VFR   Marginal VFR   IFR   Intensive IFR   Very Intensive IFR
Visi :
Ceiling :
>= 8 km
>= 3000ft
5 to 8 km
1000 to 3000 ft
1500m to 5 km
500 to 1000 ft
800 to 1500m
200 to 500 ft
< 800m
< 200 ft
Symbols :   Thunderstorms  Fog  Heavy snow  Heavy precipitations  Wind > 20 kt
SIGMETs :     Misc.  Thunderstorms  Icing  Turbulence  Mountain Waves  Volcanic Ashes






- Airport Elevation : 465 ft
- IATA code : LEJ


EDDP - Leipzig Halle

CURRENT METAR :
  • 121920Z 31016KT CAVOK 18/08 Q1018 TEMPO 31015G25KT

EXPIRED METARs :
  • 121850Z 31014KT CAVOK 18/09 Q1018 TEMPO 31015G25KT
  • 121820Z 32018KT CAVOK 19/09 Q1017 TEMPO 32015G25KT
  • 121750Z 32017KT CAVOK 20/09 Q1017 TEMPO 32015G25KT
  • 121720Z 31016KT 9999 FEW048 20/10 Q1017 TEMPO 31015G25KT
  • 121650Z 31017KT CAVOK 21/10 Q1016 TEMPO 31015G25KT

TAF TAF EDDP
Valid from the 12 at 18:00 until the 13 at 18:00 UTC


121700Z 1218/1318 31015G25KT CAVOK
BECMG 1218/1220 31010KT
TEMPO 1308/1315 31015G25KT



MET'MAP, your aeronautical weather chart ! - Copyright ORBIFLY December 2007 - Disclaimer

ORBIFLY MET'MAP TEAM :

Programming & Development : Alexandra Zaïnal
Concept & original design : Baudouin d'Aumeries
Assistance for programming : Marc-Olivier Méhu
Technical & hardware support : Manuel Goepfert

Contact : metmap@orbifly.com




SOURCES & CREDITS :

   NOAA